sensor_id;sensor_type;location;lat;lon;timestamp;temperature;humidity
22290;DHT22;11313;50.116;8.424;2022-08-19T00:00:12;26.80;53.60
22290;DHT22;11313;50.116;8.424;2022-08-19T00:02:39;26.80;53.50
22290;DHT22;11313;50.116;8.424;2022-08-19T00:05:05;26.80;53.60
22290;DHT22;11313;50.116;8.424;2022-08-19T00:07:31;26.70;53.50
22290;DHT22;11313;50.116;8.424;2022-08-19T00:09:56;26.70;53.50
22290;DHT22;11313;50.116;8.424;2022-08-19T00:12:22;26.80;53.50
22290;DHT22;11313;50.116;8.424;2022-08-19T00:14:47;26.80;53.50
22290;DHT22;11313;50.116;8.424;2022-08-19T00:17:13;26.80;53.50
22290;DHT22;11313;50.116;8.424;2022-08-19T00:19:39;26.80;53.50
22290;DHT22;11313;50.116;8.424;2022-08-19T00:22:05;26.80;53.50
22290;DHT22;11313;50.116;8.424;2022-08-19T00:24:31;26.80;53.50
22290;DHT22;11313;50.116;8.424;2022-08-19T00:26:58;26.80;53.50
22290;DHT22;11313;50.116;8.424;2022-08-19T00:29:24;26.80;53.50
22290;DHT22;11313;50.116;8.424;2022-08-19T00:31:51;26.80;53.50
22290;DHT22;11313;50.116;8.424;2022-08-19T00:34:22;26.80;53.50
22290;DHT22;11313;50.116;8.424;2022-08-19T00:36:48;26.70;53.40
22290;DHT22;11313;50.116;8.424;2022-08-19T00:39:15;26.70;53.40
22290;DHT22;11313;50.116;8.424;2022-08-19T00:41:42;26.80;53.50
22290;DHT22;11313;50.116;8.424;2022-08-19T00:44:14;26.70;53.40
22290;DHT22;11313;50.116;8.424;2022-08-19T00:46:42;26.80;53.40
22290;DHT22;11313;50.116;8.424;2022-08-19T00:49:21;26.80;53.50
22290;DHT22;11313;50.116;8.424;2022-08-19T00:51:52;26.80;53.40
22290;DHT22;11313;50.116;8.424;2022-08-19T00:54:19;26.80;53.40
22290;DHT22;11313;50.116;8.424;2022-08-19T00:56:46;26.80;53.50
22290;DHT22;11313;50.116;8.424;2022-08-19T00:59:14;26.80;53.40
22290;DHT22;11313;50.116;8.424;2022-08-19T01:01:42;26.80;53.40
22290;DHT22;11313;50.116;8.424;2022-08-19T01:04:08;26.80;53.40
22290;DHT22;11313;50.116;8.424;2022-08-19T01:06:36;26.70;53.40
22290;DHT22;11313;50.116;8.424;2022-08-19T01:09:03;26.80;53.40
22290;DHT22;11313;50.116;8.424;2022-08-19T01:11:31;26.80;53.40
22290;DHT22;11313;50.116;8.424;2022-08-19T01:13:58;26.80;53.40
22290;DHT22;11313;50.116;8.424;2022-08-19T01:16:26;26.70;53.40
22290;DHT22;11313;50.116;8.424;2022-08-19T01:18:52;26.80;53.40
22290;DHT22;11313;50.116;8.424;2022-08-19T01:23:46;26.80;53.40
22290;DHT22;11313;50.116;8.424;2022-08-19T01:26:17;26.80;53.40
22290;DHT22;11313;50.116;8.424;2022-08-19T01:28:45;26.70;53.30
22290;DHT22;11313;50.116;8.424;2022-08-19T01:31:18;26.80;53.40
22290;DHT22;11313;50.116;8.424;2022-08-19T01:33:45;26.80;53.40
22290;DHT22;11313;50.116;8.424;2022-08-19T01:36:15;26.80;53.40
22290;DHT22;11313;50.116;8.424;2022-08-19T01:38:43;26.80;53.40
22290;DHT22;11313;50.116;8.424;2022-08-19T01:41:11;26.80;53.40
22290;DHT22;11313;50.116;8.424;2022-08-19T01:43:38;26.70;53.30
22290;DHT22;11313;50.116;8.424;2022-08-19T01:46:03;26.80;53.30
22290;DHT22;11313;50.116;8.424;2022-08-19T01:48:35;26.80;53.40
22290;DHT22;11313;50.116;8.424;2022-08-19T01:51:01;26.80;53.40
22290;DHT22;11313;50.116;8.424;2022-08-19T01:53:26;26.80;53.30
22290;DHT22;11313;50.116;8.424;2022-08-19T01:55:52;26.80;53.30
22290;DHT22;11313;50.116;8.424;2022-08-19T01:58:23;26.80;53.30
22290;DHT22;11313;50.116;8.424;2022-08-19T02:00:50;26.70;53.30
22290;DHT22;11313;50.116;8.424;2022-08-19T02:03:16;26.80;53.30
22290;DHT22;11313;50.116;8.424;2022-08-19T02:05:43;26.80;53.30
22290;DHT22;11313;50.116;8.424;2022-08-19T02:08:10;26.70;53.30
22290;DHT22;11313;50.116;8.424;2022-08-19T02:10:40;26.80;53.30
22290;DHT22;11313;50.116;8.424;2022-08-19T02:13:06;26.80;53.30
22290;DHT22;11313;50.116;8.424;2022-08-19T02:15:32;26.80;53.30
22290;DHT22;11313;50.116;8.424;2022-08-19T02:17:57;26.80;53.30
22290;DHT22;11313;50.116;8.424;2022-08-19T02:20:23;26.80;53.30
22290;DHT22;11313;50.116;8.424;2022-08-19T02:22:49;26.60;53.20
22290;DHT22;11313;50.116;8.424;2022-08-19T02:25:15;26.80;53.30
22290;DHT22;11313;50.116;8.424;2022-08-19T02:27:41;26.80;53.90
22290;DHT22;11313;50.116;8.424;2022-08-19T02:30:11;26.70;53.30
22290;DHT22;11313;50.116;8.424;2022-08-19T02:32:37;26.80;53.30
22290;DHT22;11313;50.116;8.424;2022-08-19T02:35:04;26.80;53.30
22290;DHT22;11313;50.116;8.424;2022-08-19T02:37:29;26.80;53.30
22290;DHT22;11313;50.116;8.424;2022-08-19T02:40:14;26.80;53.20
22290;DHT22;11313;50.116;8.424;2022-08-19T02:42:40;26.80;53.30
22290;DHT22;11313;50.116;8.424;2022-08-19T02:45:06;26.80;53.30
22290;DHT22;11313;50.116;8.424;2022-08-19T02:47:32;26.80;53.20
22290;DHT22;11313;50.116;8.424;2022-08-19T02:49:58;26.80;53.30
22290;DHT22;11313;50.116;8.424;2022-08-19T02:52:23;26.80;53.20
22290;DHT22;11313;50.116;8.424;2022-08-19T02:54:50;26.80;53.20
22290;DHT22;11313;50.116;8.424;2022-08-19T02:57:16;26.80;53.20
22290;DHT22;11313;50.116;8.424;2022-08-19T02:59:41;26.80;53.20
22290;DHT22;11313;50.116;8.424;2022-08-19T03:02:07;26.80;53.20
22290;DHT22;11313;50.116;8.424;2022-08-19T03:04:32;26.80;53.20
22290;DHT22;11313;50.116;8.424;2022-08-19T03:06:58;26.80;53.20
22290;DHT22;11313;50.116;8.424;2022-08-19T03:09:26;26.70;53.10
22290;DHT22;11313;50.116;8.424;2022-08-19T03:11:52;26.70;53.10
22290;DHT22;11313;50.116;8.424;2022-08-19T03:14:17;26.70;53.10
22290;DHT22;11313;50.116;8.424;2022-08-19T03:16:50;26.70;53.10
22290;DHT22;11313;50.116;8.424;2022-08-19T03:19:17;26.80;53.10
22290;DHT22;11313;50.116;8.424;2022-08-19T03:21:44;26.80;53.10
22290;DHT22;11313;50.116;8.424;2022-08-19T03:24:10;26.80;53.10
22290;DHT22;11313;50.116;8.424;2022-08-19T03:26:46;26.70;53.00
22290;DHT22;11313;50.116;8.424;2022-08-19T03:29:12;26.80;53.10
22290;DHT22;11313;50.116;8.424;2022-08-19T03:31:41;26.80;53.10
22290;DHT22;11313;50.116;8.424;2022-08-19T03:34:07;26.80;53.10
22290;DHT22;11313;50.116;8.424;2022-08-19T03:36:33;26.70;53.00
22290;DHT22;11313;50.116;8.424;2022-08-19T03:39:00;26.80;53.10
22290;DHT22;11313;50.116;8.424;2022-08-19T03:41:32;26.80;53.10
22290;DHT22;11313;50.116;8.424;2022-08-19T03:43:58;26.80;53.70
22290;DHT22;11313;50.116;8.424;2022-08-19T03:46:29;26.80;53.00
22290;DHT22;11313;50.116;8.424;2022-08-19T03:48:57;26.80;53.10
22290;DHT22;11313;50.116;8.424;2022-08-19T03:51:33;26.80;53.10
22290;DHT22;11313;50.116;8.424;2022-08-19T03:54:02;26.80;53.00
22290;DHT22;11313;50.116;8.424;2022-08-19T03:56:29;26.80;53.00
22290;DHT22;11313;50.116;8.424;2022-08-19T03:58:56;26.70;53.00
22290;DHT22;11313;50.116;8.424;2022-08-19T04:01:24;26.70;53.00
22290;DHT22;11313;50.116;8.424;2022-08-19T04:03:52;26.70;53.00
22290;DHT22;11313;50.116;8.424;2022-08-19T04:06:26;26.70;53.00
22290;DHT22;11313;50.116;8.424;2022-08-19T04:08:54;26.80;53.00
22290;DHT22;11313;50.116;8.424;2022-08-19T04:11:25;26.80;53.00
22290;DHT22;11313;50.116;8.424;2022-08-19T04:13:52;26.80;53.00
22290;DHT22;11313;50.116;8.424;2022-08-19T04:16:19;26.80;53.00
22290;DHT22;11313;50.116;8.424;2022-08-19T04:18:46;26.80;53.00
22290;DHT22;11313;50.116;8.424;2022-08-19T04:21:17;26.80;53.00
22290;DHT22;11313;50.116;8.424;2022-08-19T04:23:44;26.70;53.00
22290;DHT22;11313;50.116;8.424;2022-08-19T04:26:31;26.80;53.00
22290;DHT22;11313;50.116;8.424;2022-08-19T04:28:58;26.80;53.10
22290;DHT22;11313;50.116;8.424;2022-08-19T04:31:27;26.80;53.10
22290;DHT22;11313;50.116;8.424;2022-08-19T04:33:54;26.70;53.10
22290;DHT22;11313;50.116;8.424;2022-08-19T04:36:24;26.70;53.20
22290;DHT22;11313;50.116;8.424;2022-08-19T04:38:54;26.70;53.40
22290;DHT22;11313;50.116;8.424;2022-08-19T04:41:19;26.80;53.50
22290;DHT22;11313;50.116;8.424;2022-08-19T04:44:04;26.70;53.60
22290;DHT22;11313;50.116;8.424;2022-08-19T04:46:29;26.80;53.70
22290;DHT22;11313;50.116;8.424;2022-08-19T04:48:58;26.80;53.80
22290;DHT22;11313;50.116;8.424;2022-08-19T04:51:24;26.80;53.80
22290;DHT22;11313;50.116;8.424;2022-08-19T04:53:51;26.80;53.90
22290;DHT22;11313;50.116;8.424;2022-08-19T04:56:19;26.80;53.90
22290;DHT22;11313;50.116;8.424;2022-08-19T04:58:47;26.70;54.00
22290;DHT22;11313;50.116;8.424;2022-08-19T05:01:17;26.70;53.90
22290;DHT22;11313;50.116;8.424;2022-08-19T05:03:43;26.80;54.00
22290;DHT22;11313;50.116;8.424;2022-08-19T05:06:11;26.80;54.10
22290;DHT22;11313;50.116;8.424;2022-08-19T05:08:39;26.80;54.10
22290;DHT22;11313;50.116;8.424;2022-08-19T05:11:13;26.80;54.10
22290;DHT22;11313;50.116;8.424;2022-08-19T05:13:39;26.70;54.00
22290;DHT22;11313;50.116;8.424;2022-08-19T16:22:06;26.40;54.00
22290;DHT22;11313;50.116;8.424;2022-08-19T16:24:31;26.50;54.10
22290;DHT22;11313;50.116;8.424;2022-08-19T16:27:00;26.40;54.00
22290;DHT22;11313;50.116;8.424;2022-08-19T16:29:26;26.40;54.10
22290;DHT22;11313;50.116;8.424;2022-08-19T16:31:52;26.50;54.20
22290;DHT22;11313;50.116;8.424;2022-08-19T16:34:20;26.50;54.20
22290;DHT22;11313;50.116;8.424;2022-08-19T16:36:46;26.50;54.20
22290;DHT22;11313;50.116;8.424;2022-08-19T16:39:13;26.50;54.20
22290;DHT22;11313;50.116;8.424;2022-08-19T16:41:40;26.50;54.20
22290;DHT22;11313;50.116;8.424;2022-08-19T16:44:09;26.40;54.20
22290;DHT22;11313;50.116;8.424;2022-08-19T16:46:35;26.50;54.30
22290;DHT22;11313;50.116;8.424;2022-08-19T16:49:02;26.50;54.30
22290;DHT22;11313;50.116;8.424;2022-08-19T16:51:28;26.50;54.30
22290;DHT22;11313;50.116;8.424;2022-08-19T16:53:54;26.50;54.40
22290;DHT22;11313;50.116;8.424;2022-08-19T16:56:20;26.60;54.40
22290;DHT22;11313;50.116;8.424;2022-08-19T16:58:47;26.50;54.40
22290;DHT22;11313;50.116;8.424;2022-08-19T17:01:14;26.40;54.30
22290;DHT22;11313;50.116;8.424;2022-08-19T17:03:40;26.50;54.40
22290;DHT22;11313;50.116;8.424;2022-08-19T17:06:12;26.50;54.40
22290;DHT22;11313;50.116;8.424;2022-08-19T17:08:38;26.50;54.50
22290;DHT22;11313;50.116;8.424;2022-08-19T17:11:03;26.50;55.10
22290;DHT22;11313;50.116;8.424;2022-08-19T17:13:29;26.50;54.50
22290;DHT22;11313;50.116;8.424;2022-08-19T17:15:56;26.50;54.50
22290;DHT22;11313;50.116;8.424;2022-08-19T17:18:22;26.50;54.50
22290;DHT22;11313;50.116;8.424;2022-08-19T17:20:49;26.50;55.10
22290;DHT22;11313;50.116;8.424;2022-08-19T17:23:16;26.50;54.50
22290;DHT22;11313;50.116;8.424;2022-08-19T17:25:41;26.60;54.50
22290;DHT22;11313;50.116;8.424;2022-08-19T17:28:13;26.50;54.50
22290;DHT22;11313;50.116;8.424;2022-08-19T17:30:39;26.50;54.50
22290;DHT22;11313;50.116;8.424;2022-08-19T17:33:05;26.50;54.50
22290;DHT22;11313;50.116;8.424;2022-08-19T17:35:32;26.50;54.40
22290;DHT22;11313;50.116;8.424;2022-08-19T17:38:02;26.50;54.50
22290;DHT22;11313;50.116;8.424;2022-08-19T17:40:28;26.50;54.40
22290;DHT22;11313;50.116;8.424;2022-08-19T17:42:53;26.50;54.40
22290;DHT22;11313;50.116;8.424;2022-08-19T17:45:19;26.50;54.40
22290;DHT22;11313;50.116;8.424;2022-08-19T17:47:45;26.50;54.40
22290;DHT22;11313;50.116;8.424;2022-08-19T17:50:11;26.60;54.40
22290;DHT22;11313;50.116;8.424;2022-08-19T17:52:40;26.50;54.40
22290;DHT22;11313;50.116;8.424;2022-08-19T17:55:07;26.50;54.40
22290;DHT22;11313;50.116;8.424;2022-08-19T17:57:35;26.50;54.30
22290;DHT22;11313;50.116;8.424;2022-08-19T18:00:05;26.50;54.30
22290;DHT22;11313;50.116;8.424;2022-08-19T18:02:31;26.50;54.30
22290;DHT22;11313;50.116;8.424;2022-08-19T18:04:57;26.50;54.30
22290;DHT22;11313;50.116;8.424;2022-08-19T18:07:22;26.50;54.30
22290;DHT22;11313;50.116;8.424;2022-08-19T18:09:48;26.50;54.30
22290;DHT22;11313;50.116;8.424;2022-08-19T18:12:21;26.60;54.30
22290;DHT22;11313;50.116;8.424;2022-08-19T18:14:47;26.50;54.30
22290;DHT22;11313;50.116;8.424;2022-08-19T18:17:14;26.50;54.30
22290;DHT22;11313;50.116;8.424;2022-08-19T18:19:42;26.50;54.20
22290;DHT22;11313;50.116;8.424;2022-08-19T18:22:21;26.60;54.30
22290;DHT22;11313;50.116;8.424;2022-08-19T18:24:47;26.60;54.30
22290;DHT22;11313;50.116;8.424;2022-08-19T18:27:13;26.50;54.20
22290;DHT22;11313;50.116;8.424;2022-08-19T18:29:38;26.50;54.20
22290;DHT22;11313;50.116;8.424;2022-08-19T18:32:05;26.60;54.20
22290;DHT22;11313;50.116;8.424;2022-08-19T18:34:36;26.60;54.20
22290;DHT22;11313;50.116;8.424;2022-08-19T18:37:02;26.60;54.20
22290;DHT22;11313;50.116;8.424;2022-08-19T18:39:28;26.60;54.20
22290;DHT22;11313;50.116;8.424;2022-08-19T18:42:16;26.60;54.20
22290;DHT22;11313;50.116;8.424;2022-08-19T18:45:01;26.60;54.20
22290;DHT22;11313;50.116;8.424;2022-08-19T18:47:45;26.60;54.20
22290;DHT22;11313;50.116;8.424;2022-08-19T18:50:29;26.60;54.20
22290;DHT22;11313;50.116;8.424;2022-08-19T18:52:55;26.60;54.20
22290;DHT22;11313;50.116;8.424;2022-08-19T18:55:20;26.60;54.20
22290;DHT22;11313;50.116;8.424;2022-08-19T18:57:48;26.60;54.20
22290;DHT22;11313;50.116;8.424;2022-08-19T19:00:15;26.60;54.20
22290;DHT22;11313;50.116;8.424;2022-08-19T19:02:41;26.50;54.10
22290;DHT22;11313;50.116;8.424;2022-08-19T19:05:07;26.60;54.20
22290;DHT22;11313;50.116;8.424;2022-08-19T19:07:36;26.60;54.20
22290;DHT22;11313;50.116;8.424;2022-08-19T19:10:02;26.60;54.20
22290;DHT22;11313;50.116;8.424;2022-08-19T19:12:28;26.60;54.20
22290;DHT22;11313;50.116;8.424;2022-08-19T19:14:54;26.60;54.20
22290;DHT22;11313;50.116;8.424;2022-08-19T19:17:20;26.70;54.20
22290;DHT22;11313;50.116;8.424;2022-08-19T19:19:52;26.50;54.00
22290;DHT22;11313;50.116;8.424;2022-08-19T19:22:20;26.60;54.10
22290;DHT22;11313;50.116;8.424;2022-08-19T19:24:46;26.60;54.10
22290;DHT22;11313;50.116;8.424;2022-08-19T19:27:14;26.60;54.10
22290;DHT22;11313;50.116;8.424;2022-08-19T19:29:42;26.60;54.10
22290;DHT22;11313;50.116;8.424;2022-08-19T19:32:27;26.60;54.10
22290;DHT22;11313;50.116;8.424;2022-08-19T19:34:54;26.60;54.10
22290;DHT22;11313;50.116;8.424;2022-08-19T19:37:20;26.50;54.00
22290;DHT22;11313;50.116;8.424;2022-08-19T19:39:46;26.60;54.10
22290;DHT22;11313;50.116;8.424;2022-08-19T19:42:15;26.60;54.00
22290;DHT22;11313;50.116;8.424;2022-08-19T19:44:43;26.50;53.90
22290;DHT22;11313;50.116;8.424;2022-08-19T19:47:10;26.60;54.00
22290;DHT22;11313;50.116;8.424;2022-08-19T19:49:36;26.60;54.00
22290;DHT22;11313;50.116;8.424;2022-08-19T19:52:04;26.60;54.00
22290;DHT22;11313;50.116;8.424;2022-08-19T19:54:31;26.60;54.00
22290;DHT22;11313;50.116;8.424;2022-08-19T19:56:57;26.60;54.00
22290;DHT22;11313;50.116;8.424;2022-08-19T19:59:23;26.60;54.00
22290;DHT22;11313;50.116;8.424;2022-08-19T20:01:48;26.60;54.00
22290;DHT22;11313;50.116;8.424;2022-08-19T20:04:16;26.60;54.00
22290;DHT22;11313;50.116;8.424;2022-08-19T20:06:44;26.60;54.00
22290;DHT22;11313;50.116;8.424;2022-08-19T20:09:10;26.50;53.90
22290;DHT22;11313;50.116;8.424;2022-08-19T20:11:53;26.60;53.90
22290;DHT22;11313;50.116;8.424;2022-08-19T20:14:29;26.60;54.00
22290;DHT22;11313;50.116;8.424;2022-08-19T20:16:56;26.60;54.00
22290;DHT22;11313;50.116;8.424;2022-08-19T20:19:25;26.60;54.00
22290;DHT22;11313;50.116;8.424;2022-08-19T20:21:53;26.50;53.90
22290;DHT22;11313;50.116;8.424;2022-08-19T20:24:29;26.60;53.90
22290;DHT22;11313;50.116;8.424;2022-08-19T20:26:59;26.60;53.90
22290;DHT22;11313;50.116;8.424;2022-08-19T20:29:25;26.60;53.90
22290;DHT22;11313;50.116;8.424;2022-08-19T20:31:51;26.60;53.90
22290;DHT22;11313;50.116;8.424;2022-08-19T20:34:17;26.60;53.90
22290;DHT22;11313;50.116;8.424;2022-08-19T20:36:43;26.60;53.90
22290;DHT22;11313;50.116;8.424;2022-08-19T20:39:09;26.60;53.90
22290;DHT22;11313;50.116;8.424;2022-08-19T20:41:36;26.60;53.90
22290;DHT22;11313;50.116;8.424;2022-08-19T20:44:02;26.50;53.80
22290;DHT22;11313;50.116;8.424;2022-08-19T20:46:29;26.60;53.80
22290;DHT22;11313;50.116;8.424;2022-08-19T20:48:56;26.60;53.90
22290;DHT22;11313;50.116;8.424;2022-08-19T20:51:23;26.60;53.80
22290;DHT22;11313;50.116;8.424;2022-08-19T20:53:50;26.60;53.90
22290;DHT22;11313;50.116;8.424;2022-08-19T20:56:16;26.60;53.90
22290;DHT22;11313;50.116;8.424;2022-08-19T20:58:42;26.50;53.80
22290;DHT22;11313;50.116;8.424;2022-08-19T21:01:08;26.60;53.80
22290;DHT22;11313;50.116;8.424;2022-08-19T21:03:37;26.60;53.80
22290;DHT22;11313;50.116;8.424;2022-08-19T21:06:06;26.60;53.80
22290;DHT22;11313;50.116;8.424;2022-08-19T21:08:32;26.60;53.80
22290;DHT22;11313;50.116;8.424;2022-08-19T21:10:57;26.60;53.80
22290;DHT22;11313;50.116;8.424;2022-08-19T21:13:24;26.60;53.80
22290;DHT22;11313;50.116;8.424;2022-08-19T21:15:50;26.60;53.80
22290;DHT22;11313;50.116;8.424;2022-08-19T21:18:17;26.60;53.80
22290;DHT22;11313;50.116;8.424;2022-08-19T21:20:44;26.60;53.70
22290;DHT22;11313;50.116;8.424;2022-08-19T21:23:15;26.60;53.70
22290;DHT22;11313;50.116;8.424;2022-08-19T21:25:41;26.60;53.70
22290;DHT22;11313;50.116;8.424;2022-08-19T21:28:07;26.60;53.70
22290;DHT22;11313;50.116;8.424;2022-08-19T21:30:33;26.50;53.70
22290;DHT22;11313;50.116;8.424;2022-08-19T21:33:00;26.60;53.70
22290;DHT22;11313;50.116;8.424;2022-08-19T21:35:26;26.60;53.70
22290;DHT22;11313;50.116;8.424;2022-08-19T21:37:52;26.60;53.70
22290;DHT22;11313;50.116;8.424;2022-08-19T21:40:18;26.60;53.70
22290;DHT22;11313;50.116;8.424;2022-08-19T21:42:44;26.60;53.70
22290;DHT22;11313;50.116;8.424;2022-08-19T21:45:12;26.60;53.70
22290;DHT22;11313;50.116;8.424;2022-08-19T21:47:37;26.60;53.70
22290;DHT22;11313;50.116;8.424;2022-08-19T21:50:04;26.60;53.70
22290;DHT22;11313;50.116;8.424;2022-08-19T21:52:30;26.60;53.70
22290;DHT22;11313;50.116;8.424;2022-08-19T21:54:56;26.60;53.60
22290;DHT22;11313;50.116;8.424;2022-08-19T21:57:23;26.60;53.70
22290;DHT22;11313;50.116;8.424;2022-08-19T21:59:49;26.60;53.60
22290;DHT22;11313;50.116;8.424;2022-08-19T22:02:16;26.60;53.60
22290;DHT22;11313;50.116;8.424;2022-08-19T22:04:42;26.60;53.60
22290;DHT22;11313;50.116;8.424;2022-08-19T22:07:09;26.60;53.60
22290;DHT22;11313;50.116;8.424;2022-08-19T22:09:36;26.60;53.60
22290;DHT22;11313;50.116;8.424;2022-08-19T22:12:04;26.70;53.70
22290;DHT22;11313;50.116;8.424;2022-08-19T22:14:30;26.60;53.60
22290;DHT22;11313;50.116;8.424;2022-08-19T22:16:58;26.70;53.70
22290;DHT22;11313;50.116;8.424;2022-08-19T22:19:25;26.60;53.60
22290;DHT22;11313;50.116;8.424;2022-08-19T22:21:51;26.60;53.60
22290;DHT22;11313;50.116;8.424;2022-08-19T22:24:17;26.50;53.50
22290;DHT22;11313;50.116;8.424;2022-08-19T22:26:42;26.60;53.60
22290;DHT22;11313;50.116;8.424;2022-08-19T22:29:08;26.60;53.60
22290;DHT22;11313;50.116;8.424;2022-08-19T22:31:34;26.60;53.50
22290;DHT22;11313;50.116;8.424;2022-08-19T22:34:02;26.60;53.60
22290;DHT22;11313;50.116;8.424;2022-08-19T22:36:28;26.60;53.50
22290;DHT22;11313;50.116;8.424;2022-08-19T22:38:55;26.60;53.60
22290;DHT22;11313;50.116;8.424;2022-08-19T22:41:21;26.60;53.50
22290;DHT22;11313;50.116;8.424;2022-08-19T22:43:47;26.60;53.50
22290;DHT22;11313;50.116;8.424;2022-08-19T22:46:13;26.60;53.60
22290;DHT22;11313;50.116;8.424;2022-08-19T22:48:38;26.60;53.50
22290;DHT22;11313;50.116;8.424;2022-08-19T22:51:04;26.60;53.50
22290;DHT22;11313;50.116;8.424;2022-08-19T22:53:48;26.60;53.50
22290;DHT22;11313;50.116;8.424;2022-08-19T22:56:18;26.60;53.50
22290;DHT22;11313;50.116;8.424;2022-08-19T22:58:45;26.60;53.50
22290;DHT22;11313;50.116;8.424;2022-08-19T23:01:13;26.60;53.50
22290;DHT22;11313;50.116;8.424;2022-08-19T23:03:39;26.60;53.50
22290;DHT22;11313;50.116;8.424;2022-08-19T23:06:05;26.60;53.50
22290;DHT22;11313;50.116;8.424;2022-08-19T23:08:31;26.60;53.50
22290;DHT22;11313;50.116;8.424;2022-08-19T23:10:56;26.60;53.50
22290;DHT22;11313;50.116;8.424;2022-08-19T23:13:22;26.60;53.50
22290;DHT22;11313;50.116;8.424;2022-08-19T23:15:48;26.60;53.50
22290;DHT22;11313;50.116;8.424;2022-08-19T23:18:15;26.60;53.50
22290;DHT22;11313;50.116;8.424;2022-08-19T23:20:42;26.60;53.50
22290;DHT22;11313;50.116;8.424;2022-08-19T23:23:14;26.50;53.00
22290;DHT22;11313;50.116;8.424;2022-08-19T23:25:43;26.60;54.10
22290;DHT22;11313;50.116;8.424;2022-08-19T23:28:09;26.60;54.20
22290;DHT22;11313;50.116;8.424;2022-08-19T23:30:53;26.50;54.30
22290;DHT22;11313;50.116;8.424;2022-08-19T23:33:24;26.50;54.60
22290;DHT22;11313;50.116;8.424;2022-08-19T23:35:54;26.50;54.30
22290;DHT22;11313;50.116;8.424;2022-08-19T23:38:20;26.50;54.50
22290;DHT22;11313;50.116;8.424;2022-08-19T23:40:48;26.30;53.90
22290;DHT22;11313;50.116;8.424;2022-08-19T23:43:14;26.30;53.30
22290;DHT22;11313;50.116;8.424;2022-08-19T23:45:41;26.40;53.50
22290;DHT22;11313;50.116;8.424;2022-08-19T23:48:08;26.40;53.50
22290;DHT22;11313;50.116;8.424;2022-08-19T23:50:35;26.40;53.50
22290;DHT22;11313;50.116;8.424;2022-08-19T23:53:02;26.40;53.50
22290;DHT22;11313;50.116;8.424;2022-08-19T23:55:30;26.50;53.60
22290;DHT22;11313;50.116;8.424;2022-08-19T23:57:56;26.50;53.60
